Time;durP1;ratioP1;P1;durP2;ratioP2;P2;SDS_P1;SDS_P2;PMS_P1;PMS_P2;Temp;Humidity;BMP_temperature;BMP_pressure;BME280_temperature;BME280_humidity;BME280_pressure;Samples;Min_cycle;Max_cycle;Signal;HPM_P1;HPM_P2
2023/03/09 00:01:40;;;;;;;8.93;2.60;;;10.80;99.90;;;;;;5020981;28;20215;-72
2023/03/09 00:04:14;;;;;;;6.03;2.50;;;10.80;99.90;;;;;;5002394;28;20224;-71
2023/03/09 00:06:42;;;;;;;6.47;2.87;;;10.90;99.90;;;;;;5001349;28;20721;-71
2023/03/09 00:09:09;;;;;;;8.80;3.17;;;10.90;99.90;;;;;;5016504;28;20250;-71
2023/03/09 00:11:40;;;;;;;9.60;3.03;;;10.90;99.90;;;;;;5002512;28;20192;-71
2023/03/09 00:14:07;;;;;;;8.70;3.30;;;10.90;99.90;;;;;;5019948;28;20200;-71
2023/03/09 00:16:33;;;;;;;7.30;3.50;;;10.90;99.90;;;;;;5000440;28;20547;-71
2023/03/09 00:18:59;;;;;;;10.67;3.80;;;10.90;99.90;;;;;;5019365;28;20234;-71
2023/03/09 00:21:34;;;;;;;7.90;3.20;;;10.80;99.90;;;;;;5002902;28;20318;-71
2023/03/09 00:24:13;;;;;;;8.70;3.13;;;10.70;99.90;;;;;;5003506;28;20184;-71
2023/03/09 00:26:46;;;;;;;6.03;2.30;;;10.70;99.90;;;;;;5018559;28;20196;-72
2023/03/09 00:29:13;;;;;;;7.87;2.53;;;10.60;99.90;;;;;;5002414;28;20226;-71
2023/03/09 00:31:41;;;;;;;3.80;2.20;;;10.50;99.90;;;;;;5001117;28;20218;-71
2023/03/09 00:34:08;;;;;;;9.83;2.33;;;10.40;99.90;;;;;;5000224;28;20200;-71
2023/03/09 00:36:35;;;;;;;10.90;3.13;;;10.40;99.90;;;;;;5018985;28;20275;-71
2023/03/09 00:39:01;;;;;;;8.37;2.37;;;10.40;99.90;;;;;;5002526;28;20177;-72
2023/03/09 00:41:30;;;;;;;7.87;2.40;;;10.30;99.90;;;;;;5021331;28;20254;-71
2023/03/09 00:44:01;;;;;;;6.33;2.33;;;10.30;99.90;;;;;;5002112;28;20192;-71
2023/03/09 00:46:30;;;;;;;8.40;2.70;;;10.30;99.90;;;;;;5003518;28;21215;-71
2023/03/09 00:48:56;;;;;;;6.00;2.40;;;10.30;99.90;;;;;;5016341;28;20212;-72
2023/03/09 00:51:23;;;;;;;8.97;2.53;;;10.30;99.90;;;;;;5004360;28;20205;-71
2023/03/09 00:53:49;;;;;;;8.23;2.43;;;10.30;99.90;;;;;;5020662;28;20618;-71
2023/03/09 00:56:20;;;;;;;5.50;2.37;;;10.30;99.90;;;;;;5001883;28;20924;-71
2023/03/09 00:58:48;;;;;;;6.67;2.57;;;10.40;99.90;;;;;;5016403;28;20249;-72
2023/03/09 01:01:16;;;;;;;6.60;2.20;;;10.40;99.90;;;;;;4996981;28;20207;-71
2023/03/09 01:03:44;;;;;;;8.93;2.80;;;10.50;99.90;;;;;;5019499;28;20740;-72
2023/03/09 01:06:12;;;;;;;9.17;2.40;;;10.50;99.90;;;;;;5020344;28;20187;-71
2023/03/09 01:08:39;;;;;;;7.70;2.53;;;10.60;99.90;;;;;;5018874;28;20803;-71
2023/03/09 01:11:12;;;;;;;7.20;2.13;;;10.60;99.90;;;;;;5018658;28;20188;-71
2023/03/09 01:13:39;;;;;;;7.97;2.13;;;10.70;99.90;;;;;;5001217;28;20397;-72
2023/03/09 01:16:07;;;;;;;6.53;2.10;;;10.60;99.90;;;;;;5002743;28;20202;-71
2023/03/09 01:18:33;;;;;;;9.00;2.17;;;10.70;99.90;;;;;;5001878;28;20524;-71
2023/03/09 01:21:00;;;;;;;8.03;1.93;;;10.60;99.90;;;;;;5000905;28;20196;-73
2023/03/09 01:23:27;;;;;;;5.23;1.93;;;10.60;99.90;;;;;;5002792;28;20187;-72
2023/03/09 01:25:54;;;;;;;4.53;1.70;;;10.60;99.90;;;;;;5017905;28;20193;-71
2023/03/09 01:28:20;;;;;;;5.80;2.07;;;10.60;99.90;;;;;;5002043;28;20216;-72
2023/03/09 01:30:49;;;;;;;6.00;1.90;;;10.50;99.90;;;;;;5019735;28;20216;-71
2023/03/09 01:33:15;;;;;;;8.63;1.80;;;10.50;99.90;;;;;;5019254;28;20230;-71
2023/03/09 01:35:42;;;;;;;3.17;1.70;;;10.50;99.90;;;;;;5019311;28;20184;-71
2023/03/09 01:38:08;;;;;;;5.70;1.67;;;10.50;99.90;;;;;;4998822;28;20192;-71
2023/03/09 01:40:35;;;;;;;4.90;1.70;;;10.40;99.90;;;;;;5019151;28;20275;-71
2023/03/09 01:43:31;;;;;;;7.77;2.00;;;10.40;99.90;;;;;;5016470;28;20279;-71
2023/03/09 01:46:25;;;;;;;4.40;1.50;;;10.40;99.90;;;;;;4999880;28;20185;-71
2023/03/09 01:49:12;;;;;;;4.37;1.50;;;10.40;99.90;;;;;;5002692;28;20204;-71
2023/03/09 01:51:55;;;;;;;3.80;1.80;;;10.30;99.90;;;;;;5019529;28;20184;-71
2023/03/09 01:55:02;;;;;;;4.17;1.70;;;10.30;99.90;;;;;;5017454;28;20188;-71
2023/03/09 01:57:48;;;;;;;5.77;1.60;;;10.30;99.90;;;;;;5019251;28;20688;-72
2023/03/09 02:00:29;;;;;;;5.00;1.70;;;10.20;99.90;;;;;;5020402;28;20520;-72
2023/03/09 02:03:03;;;;;;;6.73;1.83;;;10.20;99.90;;;;;;5017420;28;20304;-72
2023/03/09 02:05:40;;;;;;;3.87;1.63;;;10.20;99.90;;;;;;5002823;28;20188;-72
2023/03/09 02:08:09;;;;;;;6.27;1.70;;;10.30;99.90;;;;;;5017152;28;20305;-71
2023/03/09 02:10:43;;;;;;;5.17;1.50;;;10.30;99.90;;;;;;5021159;28;20195;-72
2023/03/09 02:13:18;;;;;;;6.03;1.60;;;10.40;99.90;;;;;;5001848;28;20272;-71
2023/03/09 02:15:44;;;;;;;6.17;1.80;;;10.40;99.90;;;;;;5003243;28;20188;-72
2023/03/09 02:18:12;;;;;;;7.07;1.87;;;10.40;99.90;;;;;;5002040;28;20271;-71
2023/03/09 02:21:28;;;;;;;6.13;1.77;;;10.40;99.90;;;;;;5004260;28;20188;-72
2023/03/09 02:24:00;;;;;;;7.53;1.60;;;10.50;99.90;;;;;;5022213;28;20322;-71
2023/03/09 02:26:41;;;;;;;4.57;1.53;;;10.50;99.90;;;;;;5006346;28;20323;-71
2023/03/09 02:29:09;;;;;;;6.80;2.30;;;10.50;99.90;;;;;;5021104;28;20630;-71
2023/03/09 02:31:37;;;;;;;6.67;1.50;;;10.50;99.90;;;;;;5004706;28;20180;-71
2023/03/09 02:34:03;;;;;;;4.97;1.30;;;10.50;99.90;;;;;;5024019;28;20192;-71
2023/03/09 02:36:29;;;;;;;8.73;1.90;;;10.60;99.90;;;;;;5022371;28;20196;-72
2023/03/09 02:39:04;;;;;;;8.40;2.13;;;10.60;99.90;;;;;;5003071;28;22400;-72
2023/03/09 02:41:31;;;;;;;6.17;1.63;;;10.70;99.90;;;;;;5022509;28;20192;-72
2023/03/09 02:43:59;;;;;;;6.93;1.53;;;10.70;99.90;;;;;;5023741;28;21101;-72
2023/03/09 02:46:28;;;;;;;4.97;1.50;;;10.70;99.90;;;;;;5004622;28;20212;-72
2023/03/09 02:48:55;;;;;;;4.97;1.30;;;10.70;99.90;;;;;;5019269;28;20224;-72
2023/03/09 02:51:21;;;;;;;3.33;1.47;;;10.70;99.90;;;;;;5004946;28;20519;-72
2023/03/09 02:53:47;;;;;;;4.83;1.67;;;10.70;99.90;;;;;;5023661;28;20610;-71
2023/03/09 02:56:13;;;;;;;5.80;1.60;;;10.60;99.90;;;;;;5004442;28;20195;-71
2023/03/09 02:58:39;;;;;;;6.07;1.90;;;10.60;99.90;;;;;;5002473;28;20227;-71
2023/03/09 03:01:06;;;;;;;5.80;2.07;;;10.60;99.90;;;;;;5022443;28;20196;-71
2023/03/09 03:03:33;;;;;;;5.97;1.70;;;10.70;99.90;;;;;;5014831;28;20203;-71
2023/03/09 03:06:00;;;;;;;6.10;1.60;;;10.70;99.90;;;;;;4991526;28;20287;-71
2023/03/09 03:08:26;;;;;;;3.37;1.27;;;10.60;99.90;;;;;;4994895;28;20228;-71
2023/03/09 03:10:52;;;;;;;5.53;1.53;;;10.70;99.90;;;;;;4985145;28;20189;-71
2023/03/09 03:13:19;;;;;;;6.63;1.47;;;10.70;99.90;;;;;;5005911;28;20640;-71
2023/03/09 03:15:45;;;;;;;3.30;1.40;;;10.70;99.90;;;;;;5004692;28;20200;-71
2023/03/09 03:18:14;;;;;;;6.20;1.80;;;10.50;99.90;;;;;;5004843;28;20671;-71
2023/03/09 03:20:40;;;;;;;7.23;1.67;;;10.50;99.90;;;;;;5023241;28;20188;-71
2023/03/09 03:23:06;;;;;;;5.17;1.67;;;10.40;99.90;;;;;;5022745;28;20192;-71
2023/03/09 03:25:36;;;;;;;7.97;1.53;;;10.40;99.90;;;;;;5004081;28;20188;-71
2023/03/09 03:28:02;;;;;;;4.50;1.57;;;10.40;99.90;;;;;;5020508;28;20192;-71
2023/03/09 03:30:28;;;;;;;4.90;1.40;;;10.30;99.90;;;;;;5022788;28;20634;-71
2023/03/09 03:32:54;;;;;;;6.07;1.37;;;10.20;99.90;;;;;;5017818;28;20184;-72
2023/03/09 03:35:21;;;;;;;4.13;1.30;;;10.10;99.90;;;;;;5019448;28;20195;-72
2023/03/09 03:37:47;;;;;;;5.27;1.60;;;10.10;99.90;;;;;;5002442;28;20239;-71
2023/03/09 03:40:16;;;;;;;2.93;1.30;;;10.10;99.90;;;;;;5005091;28;20233;-71
2023/03/09 03:42:42;;;;;;;9.43;1.43;;;10.00;99.90;;;;;;5004695;28;20559;-71
2023/03/09 03:45:09;;;;;;;4.53;1.23;;;10.00;99.90;;;;;;5023681;28;20199;-71
2023/03/09 03:47:35;;;;;;;6.13;1.40;;;10.00;99.90;;;;;;5003218;28;20711;-71
2023/03/09 03:50:02;;;;;;;5.70;1.40;;;10.00;99.90;;;;;;5020820;28;20248;-71
2023/03/09 03:52:28;;;;;;;2.70;1.40;;;9.90;99.90;;;;;;5004590;28;20506;-71
2023/03/09 03:54:54;;;;;;;3.47;1.40;;;9.90;99.90;;;;;;5021592;28;20214;-71
2023/03/09 03:57:23;;;;;;;7.93;1.60;;;9.90;99.90;;;;;;5020791;28;20953;-71
2023/03/09 03:59:50;;;;;;;5.77;1.43;;;9.90;99.90;;;;;;5004509;28;20273;-71
2023/03/09 04:02:16;;;;;;;5.73;1.57;;;9.90;99.90;;;;;;5003578;28;20532;-71
2023/03/09 04:04:43;;;;;;;8.43;1.50;;;9.90;99.90;;;;;;5004150;28;20184;-71
2023/03/09 04:07:09;;;;;;;4.93;1.20;;;9.90;99.90;;;;;;5022521;28;20194;-71
2023/03/09 04:09:35;;;;;;;5.97;1.40;;;9.80;99.90;;;;;;5016996;28;20267;-71
2023/03/09 04:12:01;;;;;;;6.53;1.57;;;9.80;99.90;;;;;;5001985;28;20203;-72
2023/03/09 04:14:27;;;;;;;6.63;1.53;;;9.70;99.90;;;;;;5021664;28;20785;-71
2023/03/09 04:16:54;;;;;;;4.60;1.30;;;9.70;99.90;;;;;;5002704;28;20191;-71
2023/03/09 04:19:20;;;;;;;4.70;1.77;;;9.60;99.90;;;;;;5023081;28;20887;-71
2023/03/09 04:21:46;;;;;;;9.30;1.63;;;9.60;99.90;;;;;;5002373;28;20187;-71
2023/03/09 04:24:13;;;;;;;7.93;1.80;;;9.70;99.90;;;;;;5001652;28;20275;-71
2023/03/09 04:26:39;;;;;;;5.87;1.50;;;9.70;99.90;;;;;;5021224;28;20200;-71
2023/03/09 04:29:05;;;;;;;5.37;1.50;;;9.70;99.90;;;;;;5019210;28;20229;-71
2023/03/09 04:31:31;;;;;;;9.10;1.67;;;9.70;99.90;;;;;;5021466;28;20227;-71
2023/03/09 04:33:58;;;;;;;7.13;1.90;;;9.70;99.90;;;;;;5001731;28;20192;-71
2023/03/09 04:36:25;;;;;;;11.63;2.20;;;9.70;99.90;;;;;;5021806;28;20228;-71
2023/03/09 04:38:51;;;;;;;5.40;1.57;;;9.70;99.90;;;;;;5016775;28;20614;-71
2023/03/09 04:41:18;;;;;;;6.13;1.50;;;9.70;99.90;;;;;;5017364;28;20405;-72
2023/03/09 04:43:44;;;;;;;7.17;1.90;;;9.70;99.90;;;;;;5019382;28;20254;-71
2023/03/09 04:46:10;;;;;;;5.00;1.67;;;9.70;99.90;;;;;;5019686;28;20192;-71
2023/03/09 04:48:37;;;;;;;4.20;1.40;;;9.70;99.90;;;;;;5002130;28;20220;-71
2023/03/09 04:51:03;;;;;;;8.80;1.53;;;9.70;99.90;;;;;;5019062;28;20232;-71
2023/03/09 04:53:29;;;;;;;6.37;1.80;;;9.70;99.90;;;;;;5006753;28;20188;-71
2023/03/09 04:55:55;;;;;;;4.47;1.53;;;9.80;99.90;;;;;;5018980;28;20557;-71
2023/03/09 04:58:22;;;;;;;6.87;1.80;;;9.80;99.90;;;;;;5020336;28;20200;-71
2023/03/09 05:00:48;;;;;;;7.33;1.77;;;9.80;99.90;;;;;;5016439;28;20203;-71
2023/03/09 05:03:14;;;;;;;2.77;1.33;;;9.80;99.90;;;;;;5019157;28;20591;-71
2023/03/09 05:05:41;;;;;;;5.07;1.40;;;9.80;99.90;;;;;;5021401;28;20204;-71
2023/03/09 05:08:07;;;;;;;6.43;1.50;;;9.80;99.90;;;;;;5020112;28;21055;-71
2023/03/09 05:10:33;;;;;;;5.37;1.60;;;9.80;99.90;;;;;;5020163;28;20196;-71
2023/03/09 05:12:59;;;;;;;10.30;1.90;;;9.80;99.90;;;;;;5018571;28;20215;-71
2023/03/09 05:15:25;;;;;;;5.87;1.80;;;9.80;99.90;;;;;;5017710;28;20199;-71
2023/03/09 05:17:57;;;;;;;6.47;1.50;;;9.90;99.90;;;;;;5001204;28;20207;-71
2023/03/09 05:20:24;;;;;;;6.07;1.73;;;9.80;99.90;;;;;;5019651;28;20203;-71
2023/03/09 05:22:52;;;;;;;5.73;1.70;;;9.90;99.90;;;;;;5018960;28;20192;-71
2023/03/09 05:25:18;;;;;;;6.50;1.87;;;9.90;99.90;;;;;;4987381;28;20176;-71
2023/03/09 05:27:45;;;;;;;8.93;2.93;;;9.90;99.90;;;;;;4997065;28;20185;-71
2023/03/09 05:30:13;;;;;;;7.30;1.70;;;10.00;99.90;;;;;;5018208;28;20212;-71
2023/03/09 05:32:39;;;;;;;5.93;1.40;;;10.10;99.90;;;;;;5018743;28;20196;-71
2023/03/09 05:35:06;;;;;;;3.93;1.30;;;10.10;99.90;;;;;;5019225;28;21292;-71
2023/03/09 05:37:34;;;;;;;8.00;1.40;;;10.20;99.90;;;;;;5002783;28;20193;-71
2023/03/09 05:40:00;;;;;;;7.43;1.50;;;10.30;99.90;;;;;;5001465;28;20718;-71
2023/03/09 05:42:26;;;;;;;4.53;1.87;;;10.30;99.90;;;;;;5019999;28;20244;-71
2023/03/09 05:44:53;;;;;;;3.67;1.27;;;10.40;99.90;;;;;;5019838;28;20200;-71
2023/03/09 05:47:19;;;;;;;6.50;2.10;;;10.50;99.90;;;;;;5001559;28;20645;-72
2023/03/09 05:49:49;;;;;;;4.97;1.50;;;10.50;99.90;;;;;;5017475;28;20203;-71
2023/03/09 05:52:16;;;;;;;4.13;1.50;;;10.60;99.90;;;;;;5018910;28;20204;-71
2023/03/09 05:54:42;;;;;;;7.77;1.90;;;10.70;99.90;;;;;;5018048;28;20181;-71
2023/03/09 05:57:11;;;;;;;5.93;1.43;;;10.70;99.90;;;;;;5018392;28;20625;-71
2023/03/09 05:59:38;;;;;;;5.03;1.63;;;10.70;99.90;;;;;;5020040;28;20666;-71
2023/03/09 06:02:04;;;;;;;4.90;1.50;;;10.80;99.90;;;;;;5017314;28;20208;-71
2023/03/09 06:04:31;;;;;;;2.70;1.30;;;10.90;99.90;;;;;;4999807;28;20796;-71
2023/03/09 06:06:57;;;;;;;5.10;1.73;;;10.90;99.90;;;;;;5020226;28;20639;-71
2023/03/09 06:09:23;;;;;;;5.17;1.43;;;11.00;99.90;;;;;;5020609;28;20231;-71
2023/03/09 06:11:50;;;;;;;7.53;1.83;;;11.00;99.90;;;;;;5001386;28;20188;-71
2023/03/09 06:14:16;;;;;;;6.17;1.60;;;11.00;99.90;;;;;;5016061;28;20227;-71
2023/03/09 06:16:42;;;;;;;7.00;1.70;;;11.10;99.90;;;;;;5001922;28;20187;-71
2023/03/09 06:19:09;;;;;;;10.33;1.77;;;11.10;99.90;;;;;;5000241;28;20196;-71
2023/03/09 06:21:36;;;;;;;8.03;1.80;;;11.20;99.90;;;;;;5019849;28;20204;-71
2023/03/09 06:24:02;;;;;;;9.23;2.17;;;11.30;99.90;;;;;;5017725;28;20515;-71
2023/03/09 06:26:29;;;;;;;6.13;1.83;;;11.30;99.90;;;;;;5018843;28;20755;-71
2023/03/09 06:28:56;;;;;;;7.17;2.00;;;11.40;99.90;;;;;;4999709;28;20287;-71
2023/03/09 06:31:22;;;;;;;6.37;2.10;;;11.50;99.90;;;;;;5018205;28;20348;-71
2023/03/09 06:33:48;;;;;;;11.17;1.80;;;11.50;99.90;;;;;;5019454;28;20631;-72
2023/03/09 06:36:17;;;;;;;10.20;1.93;;;11.60;99.90;;;;;;5001807;28;20192;-71
2023/03/09 06:38:44;;;;;;;10.27;2.07;;;11.70;99.90;;;;;;5000084;28;20279;-72
2023/03/09 06:41:12;;;;;;;5.30;1.60;;;11.80;99.90;;;;;;5001058;28;20215;-71
2023/03/09 06:43:40;;;;;;;8.27;1.90;;;11.80;99.90;;;;;;4984911;28;20291;-71
2023/03/09 06:46:07;;;;;;;5.30;1.67;;;11.90;99.90;;;;;;5000666;28;20592;-71
2023/03/09 06:48:34;;;;;;;9.77;1.80;;;12.00;99.90;;;;;;5015900;28;20200;-72
2023/03/09 06:51:01;;;;;;;9.37;2.20;;;12.10;99.90;;;;;;5001414;28;20250;-71
2023/03/09 06:53:27;;;;;;;6.60;2.77;;;12.20;99.90;;;;;;5020945;28;21276;-71
2023/03/09 06:55:53;;;;;;;8.70;1.53;;;12.20;99.90;;;;;;5018286;28;20267;-71
2023/03/09 06:58:19;;;;;;;13.87;2.00;;;12.30;99.90;;;;;;5018037;28;20671;-72
2023/03/09 07:00:46;;;;;;;6.67;1.73;;;12.30;99.90;;;;;;4999901;28;20199;-71
2023/03/09 07:03:18;;;;;;;7.33;1.90;;;12.30;99.90;;;;;;5023747;28;20960;-71
2023/03/09 07:05:45;;;;;;;6.67;1.73;;;12.40;99.90;;;;;;5005544;28;20192;-71
2023/03/09 07:08:11;;;;;;;10.63;1.67;;;12.30;99.90;;;;;;5016283;28;20849;-71
2023/03/09 07:10:38;;;;;;;4.33;1.67;;;12.20;99.90;;;;;;5023885;28;20318;-71
2023/03/09 07:13:04;;;;;;;11.00;1.80;;;12.00;99.90;;;;;;5002557;28;20817;-71
2023/03/09 07:15:30;;;;;;;8.77;1.97;;;12.00;99.90;;;;;;5022363;28;20208;-71
2023/03/09 07:17:56;;;;;;;9.00;2.03;;;11.90;99.90;;;;;;5019005;28;20246;-71
2023/03/09 07:20:24;;;;;;;6.83;1.53;;;12.10;99.90;;;;;;5023317;28;20196;-71
2023/03/09 07:22:51;;;;;;;4.03;1.43;;;12.10;99.90;;;;;;5022421;28;20551;-71
2023/03/09 07:25:17;;;;;;;6.00;1.63;;;12.10;99.90;;;;;;5002133;28;20231;-72
2023/03/09 07:27:44;;;;;;;5.67;1.50;;;12.20;99.90;;;;;;5007257;28;20226;-72
2023/03/09 07:30:13;;;;;;;10.67;2.47;;;12.00;99.90;;;;;;5005526;28;20204;-71
2023/03/09 07:32:39;;;;;;;10.17;2.03;;;12.20;99.90;;;;;;5020437;28;20310;-71
2023/03/09 07:35:07;;;;;;;4.97;1.83;;;12.50;99.90;;;;;;5019104;28;20887;-71
2023/03/09 07:37:33;;;;;;;8.27;2.00;;;12.50;99.90;;;;;;5020120;28;20212;-71
2023/03/09 07:39:59;;;;;;;6.60;2.00;;;12.60;99.90;;;;;;5002955;28;20188;-71
2023/03/09 07:42:25;;;;;;;7.60;1.77;;;12.50;99.90;;;;;;4986925;28;20196;-72
2023/03/09 07:44:51;;;;;;;7.20;1.83;;;12.20;99.90;;;;;;5020182;28;20196;-71
2023/03/09 07:47:18;;;;;;;6.73;2.27;;;12.50;99.90;;;;;;5001258;28;20196;-71
2023/03/09 07:49:45;;;;;;;8.63;2.50;;;12.90;99.90;;;;;;5015130;28;20678;-71
2023/03/09 07:52:11;;;;;;;11.37;2.00;;;12.70;99.90;;;;;;5019858;28;20185;-71
2023/03/09 07:54:38;;;;;;;13.13;1.80;;;13.10;99.90;;;;;;5001448;28;20254;-71
2023/03/09 07:57:05;;;;;;;10.77;2.00;;;13.30;99.90;;;;;;5000825;28;20198;-71
2023/03/09 07:59:31;;;;;;;6.37;1.70;;;13.40;99.90;;;;;;5001858;28;20184;-71
2023/03/09 08:01:57;;;;;;;13.13;3.03;;;13.40;99.90;;;;;;5020650;28;20262;-72
2023/03/09 08:04:25;;;;;;;13.37;2.07;;;13.50;99.90;;;;;;5018034;28;20567;-71
2023/03/09 08:06:51;;;;;;;12.00;1.80;;;13.50;99.90;;;;;;5003025;28;20682;-71
2023/03/09 08:09:17;;;;;;;6.63;2.00;;;13.40;99.90;;;;;;5020131;28;20812;-71
2023/03/09 08:11:44;;;;;;;7.97;1.90;;;13.20;99.90;;;;;;5019043;28;20189;-71
2023/03/09 08:14:11;;;;;;;10.10;1.73;;;13.00;99.90;;;;;;5004409;28;20512;-71
2023/03/09 08:16:38;;;;;;;9.13;1.60;;;13.20;99.90;;;;;;5020688;28;21013;-71
2023/03/09 08:19:04;;;;;;;10.30;1.90;;;13.60;99.90;;;;;;5018752;28;20247;-71
2023/03/09 08:21:31;;;;;;;9.90;1.70;;;13.50;99.90;;;;;;5021255;28;20196;-71
2023/03/09 08:23:59;;;;;;;7.27;1.67;;;13.50;99.90;;;;;;5020947;28;20282;-71
2023/03/09 08:26:26;;;;;;;12.40;2.23;;;13.60;99.90;;;;;;5019923;28;20192;-71
2023/03/09 08:28:52;;;;;;;6.23;1.40;;;13.80;99.90;;;;;;5017727;28;20266;-71
2023/03/09 08:31:18;;;;;;;7.47;1.63;;;13.80;99.90;;;;;;5020090;28;20204;-71
2023/03/09 08:33:45;;;;;;;10.70;1.63;;;14.00;99.90;;;;;;5003798;28;20761;-71
2023/03/09 08:36:18;;;;;;;8.07;1.70;;;13.70;99.90;;;;;;5000428;28;20192;-71
2023/03/09 08:38:46;;;;;;;10.60;1.90;;;13.60;99.90;;;;;;5020024;28;20192;-71
2023/03/09 08:41:14;;;;;;;7.73;1.80;;;14.20;99.90;;;;;;5001758;28;20268;-71
2023/03/09 08:43:40;;;;;;;6.27;1.60;;;14.20;99.90;;;;;;5021914;28;20732;-71
2023/03/09 08:46:10;;;;;;;6.03;1.50;;;13.80;99.90;;;;;;4999790;28;20238;-71
2023/03/09 08:48:36;;;;;;;12.43;1.70;;;13.60;99.90;;;;;;4999191;28;20857;-71
2023/03/09 08:51:07;;;;;;;13.40;2.20;;;13.80;99.90;;;;;;5020661;28;20180;-71
2023/03/09 08:53:34;;;;;;;8.70;2.20;;;14.10;99.90;;;;;;5020270;28;20857;-72
2023/03/09 08:56:10;;;;;;;14.03;1.60;;;14.20;99.90;;;;;;5002686;28;20192;-71
2023/03/09 08:58:38;;;;;;;7.90;1.63;;;14.10;99.90;;;;;;4983845;28;20203;-71
2023/03/09 09:01:08;;;;;;;8.20;1.50;;;14.20;99.90;;;;;;5018652;28;20204;-71
2023/03/09 09:03:37;;;;;;;11.30;1.90;;;13.80;99.90;;;;;;5017214;28;20184;-71
2023/03/09 09:06:11;;;;;;;8.17;1.90;;;14.00;99.90;;;;;;5012698;28;20199;-71
2023/03/09 09:08:38;;;;;;;9.20;1.60;;;14.40;99.90;;;;;;5020381;28;20300;-71
2023/03/09 09:11:13;;;;;;;9.50;1.70;;;14.60;99.90;;;;;;5022326;28;20202;-71
2023/03/09 09:13:40;;;;;;;12.17;1.70;;;14.90;99.90;;;;;;5002522;28;20198;-71
2023/03/09 09:16:10;;;;;;;10.07;1.50;;;14.90;99.90;;;;;;5020550;28;20211;-71
2023/03/09 09:18:38;;;;;;;10.90;1.70;;;14.90;99.90;;;;;;5004857;28;20220;-71
2023/03/09 09:21:12;;;;;;;6.27;1.53;;;15.10;99.90;;;;;;5018494;28;20196;-71
2023/03/09 09:23:42;;;;;;;8.33;1.93;;;15.30;99.90;;;;;;5001022;28;20191;-71
2023/03/09 09:26:11;;;;;;;8.93;2.10;;;15.40;99.90;;;;;;5002134;28;20742;-71
2023/03/09 09:28:37;;;;;;;6.60;1.60;;;15.30;99.90;;;;;;5017479;28;20204;-71
2023/03/09 09:31:05;;;;;;;8.30;1.70;;;15.50;99.90;;;;;;5019125;28;20198;-71
2023/03/09 09:33:34;;;;;;;10.20;1.87;;;15.60;99.90;;;;;;5022722;28;20195;-72
2023/03/09 09:36:11;;;;;;;6.13;1.60;;;15.60;99.90;;;;;;5012658;28;20197;-71
2023/03/09 09:38:38;;;;;;;11.47;2.10;;;15.60;99.90;;;;;;5001354;28;20226;-71
2023/03/09 09:41:13;;;;;;;11.23;1.93;;;15.40;99.90;;;;;;4983438;28;20188;-71
2023/03/09 09:43:43;;;;;;;7.67;1.53;;;15.70;99.90;;;;;;5019165;28;20195;-71
2023/03/09 09:46:19;;;;;;;6.97;1.50;;;15.90;99.90;;;;;;5024064;28;20188;-71
2023/03/09 09:48:48;;;;;;;9.60;1.53;;;15.80;99.90;;;;;;4980241;28;20227;-71
2023/03/09 09:51:56;;;;;;;9.73;1.83;;;16.00;99.90;;;;;;5023221;28;20693;-71
2023/03/09 09:54:37;;;;;;;7.17;1.53;;;16.20;99.90;;;;;;5022557;28;20194;-71
2023/03/09 09:57:16;;;;;;;6.60;1.37;;;16.20;99.90;;;;;;5015313;28;20313;-71
2023/03/09 10:00:01;;;;;;;8.33;1.30;;;16.40;99.90;;;;;;5015182;28;20734;-71
2023/03/09 10:03:00;;;;;;;11.50;2.17;;;16.30;99.90;;;;;;5018497;28;20192;-71
2023/03/09 10:05:43;;;;;;;7.63;1.70;;;16.20;99.90;;;;;;5018870;28;20265;-71
2023/03/09 10:08:48;;;;;;;10.57;1.57;;;16.40;99.90;;;;;;5003752;28;20265;-71
2023/03/09 10:11:43;;;;;;;5.40;1.63;;;16.40;99.90;;;;;;4979673;28;20944;-71
2023/03/09 10:14:36;;;;;;;8.27;1.60;;;16.30;99.90;;;;;;5017617;28;20757;-71
2023/03/09 10:17:38;;;;;;;6.30;1.50;;;16.50;99.90;;;;;;5018976;28;20180;-71
2023/03/09 10:20:29;;;;;;;8.37;1.50;;;16.70;99.90;;;;;;5021554;28;20255;-71
2023/03/09 10:22:57;;;;;;;7.63;1.43;;;16.60;99.90;;;;;;5011598;28;20234;-71
2023/03/09 10:25:27;;;;;;;6.17;1.77;;;16.60;99.90;;;;;;5010083;28;20203;-71
2023/03/09 10:28:10;;;;;;;6.57;1.53;;;16.50;99.90;;;;;;5004885;28;20875;-71
2023/03/09 10:31:02;;;;;;;9.03;1.80;;;16.60;99.90;;;;;;5016644;28;20266;-71
2023/03/09 10:34:24;;;;;;;7.83;1.40;;;16.70;99.90;;;;;;5018299;28;20667;-72
2023/03/09 10:37:04;;;;;;;7.87;1.73;;;16.60;99.90;;;;;;4940905;28;20186;-73
2023/03/09 10:39:50;;;;;;;10.30;1.60;;;16.70;99.90;;;;;;4940252;28;20793;-73
2023/03/09 10:42:27;;;;;;;4.80;1.57;;;16.50;99.90;;;;;;5007681;28;20200;-73
2023/03/09 10:45:12;;;;;;;6.53;1.70;;;17.10;99.90;;;;;;5008884;28;20892;-73
2023/03/09 10:47:54;;;;;;;7.83;1.67;;;17.50;99.90;;;;;;5002962;28;20239;-73
2023/03/09 10:50:25;;;;;;;6.27;1.53;;;17.70;99.90;;;;;;5018851;28;20211;-73
2023/03/09 10:52:53;;;;;;;6.70;1.55;;;17.90;99.90;;;;;;5002860;28;20196;-73
2023/03/09 10:55:43;;;;;;;7.50;1.90;;;17.80;99.90;;;;;;5015601;28;20184;-73
2023/03/09 10:58:21;;;;;;;6.78;1.95;;;17.80;99.90;;;;;;5020661;28;20661;-73
2023/03/09 11:00:58;;;;;;;6.13;1.70;;;17.70;99.90;;;;;;5021986;28;20192;-73
2023/03/09 11:03:38;;;;;;;8.95;1.65;;;17.80;99.90;;;;;;5019050;28;20192;-73
2023/03/09 11:06:33;;;;;;;6.73;1.60;;;17.90;99.90;;;;;;5019712;28;20194;-73
2023/03/09 11:09:44;;;;;;;7.07;1.45;;;18.00;99.90;;;;;;5021088;28;20200;-73
2023/03/09 11:12:29;;;;;;;7.97;1.40;;;17.50;99.90;;;;;;5003914;28;20227;-73
2023/03/09 11:15:00;;;;;;;8.83;1.87;;;17.10;99.90;;;;;;5022487;28;20192;-73
2023/03/09 11:17:40;;;;;;;6.30;1.47;;;17.40;99.90;;;;;;5003307;28;20224;-73
2023/03/09 11:20:12;;;;;;;5.93;1.50;;;17.50;99.90;;;;;;5022463;28;20192;-73
2023/03/09 11:22:58;;;;;;;6.13;1.67;;;17.60;99.90;;;;;;5023806;28;20232;-73
2023/03/09 11:26:18;;;;;;;12.33;2.03;;;17.80;99.90;;;;;;5021542;28;20177;-73
2023/03/09 11:29:04;;;;;;;13.57;2.30;;;17.70;99.90;;;;;;5020154;28;20551;-73
2023/03/09 11:31:40;;;;;;;8.50;2.30;;;17.70;99.90;;;;;;5025215;28;20188;-73
2023/03/09 11:34:40;;;;;;;10.83;2.10;;;17.60;99.90;;;;;;5025044;28;20459;-73
2023/03/09 11:37:46;;;;;;;8.50;2.13;;;17.60;99.90;;;;;;4987213;28;20621;-73
2023/03/09 11:40:22;;;;;;;12.50;2.53;;;17.30;99.90;;;;;;5018098;28;20733;-73
2023/03/09 11:43:19;;;;;;;5.73;1.40;;;17.50;99.90;;;;;;5008194;28;20207;-73
2023/03/09 11:45:46;;;;;;;8.53;1.57;;;17.40;99.90;;;;;;5020525;28;20258;-73
2023/03/09 11:48:28;;;;;;;8.03;1.77;;;17.50;99.90;;;;;;5023676;28;20193;-73
2023/03/09 11:51:14;;;;;;;5.77;1.40;;;17.60;99.90;;;;;;5004291;28;20687;-73
2023/03/09 11:54:24;;;;;;;6.77;1.37;;;17.60;99.90;;;;;;5014950;28;20269;-73
2023/03/09 11:56:52;;;;;;;4.40;1.40;;;17.70;99.90;;;;;;4990198;28;20523;-73
2023/03/09 11:59:54;;;;;;;4.93;1.27;;;17.70;99.90;;;;;;5021125;28;20192;-73
2023/03/09 12:02:34;;;;;;;10.03;1.67;;;17.70;99.90;;;;;;5006305;28;20250;-73
2023/03/09 12:05:02;;;;;;;4.53;1.33;;;17.80;99.90;;;;;;5023837;28;20537;-73
2023/03/09 12:08:06;;;;;;;7.07;1.27;;;17.60;99.90;;;;;;5021921;28;20271;-73
2023/03/09 12:10:56;;;;;;;9.17;1.63;;;17.70;99.90;;;;;;4997134;28;20667;-73
2023/03/09 12:13:30;;;;;;;5.27;1.33;;;17.80;99.90;;;;;;4987852;28;20188;-73
2023/03/09 12:16:13;;;;;;;5.37;1.70;;;17.80;99.90;;;;;;4998318;28;20211;-73
2023/03/09 12:19:05;;;;;;;6.20;1.50;;;17.80;99.90;;;;;;5022183;28;20223;-73
2023/03/09 12:22:07;;;;;;;6.67;1.57;;;17.70;99.90;;;;;;5021830;28;20199;-73
2023/03/09 12:24:42;;;;;;;8.03;1.60;;;17.80;99.90;;;;;;4982747;28;20218;-73
2023/03/09 12:27:19;;;;;;;7.37;1.53;;;17.90;99.90;;;;;;5016785;28;20176;-73
2023/03/09 12:30:09;;;;;;;4.13;1.40;;;18.00;99.90;;;;;;5019555;28;20203;-73
2023/03/09 12:32:42;;;;;;;7.03;1.53;;;17.90;99.90;;;;;;5016544;28;20292;-73
2023/03/09 12:35:20;;;;;;;10.27;1.70;;;17.90;99.90;;;;;;5021182;28;20283;-73
2023/03/09 12:37:49;;;;;;;6.97;1.50;;;17.90;99.90;;;;;;5018823;28;20275;-73
2023/03/09 12:40:28;;;;;;;7.63;1.40;;;17.90;99.90;;;;;;5022263;28;20195;-73
2023/03/09 12:43:18;;;;;;;5.90;1.53;;;17.90;99.90;;;;;;5019320;28;20582;-73
2023/03/09 12:45:50;;;;;;;10.33;1.83;;;17.90;99.90;;;;;;5020322;28;20725;-73
2023/03/09 12:48:30;;;;;;;8.77;1.60;;;17.70;99.90;;;;;;5020014;28;20230;-73
2023/03/09 12:51:19;;;;;;;4.30;1.43;;;17.50;99.90;;;;;;5015709;28;20641;-73
2023/03/09 12:54:24;;;;;;;6.00;1.57;;;17.50;99.90;;;;;;5015845;28;20804;-73
2023/03/09 12:56:52;;;;;;;10.23;1.83;;;17.00;99.90;;;;;;5002127;28;20188;-73
2023/03/09 12:59:26;;;;;;;8.63;1.87;;;17.30;99.90;;;;;;5002897;28;20264;-73
2023/03/09 13:01:53;;;;;;;8.70;1.60;;;17.00;99.90;;;;;;5014923;28;20191;-73
2023/03/09 13:04:25;;;;;;;8.10;1.70;;;16.80;99.90;;;;;;5000472;28;20195;-73
2023/03/09 13:06:55;;;;;;;4.60;1.40;;;16.80;99.90;;;;;;5017725;28;20188;-73
2023/03/09 13:09:39;;;;;;;4.90;1.60;;;17.20;99.90;;;;;;5000757;28;20726;-73
2023/03/09 13:12:30;;;;;;;6.77;1.67;;;17.40;99.90;;;;;;4999758;28;21063;-73